sensor_id;sensor_type;location;lat;lon;timestamp;temperature;humidity
11965;DHT22;6042;41.326;19.826;2023-06-19T00:01:51;20.00;99.90
11965;DHT22;6042;41.326;19.826;2023-06-19T00:04:20;20.00;99.90
11965;DHT22;6042;41.326;19.826;2023-06-19T00:06:48;20.10;99.90
11965;DHT22;6042;41.326;19.826;2023-06-19T00:09:17;19.90;99.90
11965;DHT22;6042;41.326;19.826;2023-06-19T00:11:47;19.90;99.90
11965;DHT22;6042;41.326;19.826;2023-06-19T00:14:16;19.70;99.90
11965;DHT22;6042;41.326;19.826;2023-06-19T00:16:44;19.70;99.90
11965;DHT22;6042;41.326;19.826;2023-06-19T00:19:13;19.70;99.90
11965;DHT22;6042;41.326;19.826;2023-06-19T00:21:42;19.60;99.90
11965;DHT22;6042;41.326;19.826;2023-06-19T00:24:11;19.50;99.90
11965;DHT22;6042;41.326;19.826;2023-06-19T00:26:39;19.20;99.90
11965;DHT22;6042;41.326;19.826;2023-06-19T00:29:12;19.10;99.90
11965;DHT22;6042;41.326;19.826;2023-06-19T00:31:41;19.20;99.90
11965;DHT22;6042;41.326;19.826;2023-06-19T00:34:09;19.20;99.90
11965;DHT22;6042;41.326;19.826;2023-06-19T00:36:38;19.20;99.90
11965;DHT22;6042;41.326;19.826;2023-06-19T00:39:08;19.30;99.90
11965;DHT22;6042;41.326;19.826;2023-06-19T00:41:36;19.40;99.90
11965;DHT22;6042;41.326;19.826;2023-06-19T00:44:05;19.40;99.90
11965;DHT22;6042;41.326;19.826;2023-06-19T00:46:37;19.40;99.90
11965;DHT22;6042;41.326;19.826;2023-06-19T00:49:08;19.20;99.90
11965;DHT22;6042;41.326;19.826;2023-06-19T00:51:38;19.20;99.90
11965;DHT22;6042;41.326;19.826;2023-06-19T00:54:07;19.10;99.90
11965;DHT22;6042;41.326;19.826;2023-06-19T00:56:37;19.30;99.90
11965;DHT22;6042;41.326;19.826;2023-06-19T00:59:13;19.30;99.90
11965;DHT22;6042;41.326;19.826;2023-06-19T01:01:45;19.30;99.90
11965;DHT22;6042;41.326;19.826;2023-06-19T01:04:14;19.10;99.90
11965;DHT22;6042;41.326;19.826;2023-06-19T01:06:50;19.10;99.90
11965;DHT22;6042;41.326;19.826;2023-06-19T01:09:28;19.00;99.90
11965;DHT22;6042;41.326;19.826;2023-06-19T01:12:03;19.00;99.90
11965;DHT22;6042;41.326;19.826;2023-06-19T01:14:36;19.20;99.90
11965;DHT22;6042;41.326;19.826;2023-06-19T01:17:09;19.30;99.90
11965;DHT22;6042;41.326;19.826;2023-06-19T01:19:39;19.30;99.90
11965;DHT22;6042;41.326;19.826;2023-06-19T01:22:09;19.30;99.90
11965;DHT22;6042;41.326;19.826;2023-06-19T01:24:38;19.20;99.90
11965;DHT22;6042;41.326;19.826;2023-06-19T01:27:07;19.20;99.90
11965;DHT22;6042;41.326;19.826;2023-06-19T01:29:37;19.20;99.90
11965;DHT22;6042;41.326;19.826;2023-06-19T01:32:10;19.10;99.90
11965;DHT22;6042;41.326;19.826;2023-06-19T01:34:42;19.10;99.90
11965;DHT22;6042;41.326;19.826;2023-06-19T01:37:12;19.00;99.90
11965;DHT22;6042;41.326;19.826;2023-06-19T01:39:41;19.00;99.90
11965;DHT22;6042;41.326;19.826;2023-06-19T01:42:11;19.00;99.90
11965;DHT22;6042;41.326;19.826;2023-06-19T01:44:40;19.00;99.90
11965;DHT22;6042;41.326;19.826;2023-06-19T01:47:10;18.90;99.90
11965;DHT22;6042;41.326;19.826;2023-06-19T01:49:42;19.00;99.90
11965;DHT22;6042;41.326;19.826;2023-06-19T01:52:12;19.00;99.90
11965;DHT22;6042;41.326;19.826;2023-06-19T01:54:41;19.10;99.90
11965;DHT22;6042;41.326;19.826;2023-06-19T01:57:10;19.20;99.90
11965;DHT22;6042;41.326;19.826;2023-06-19T01:59:39;19.20;99.90
11965;DHT22;6042;41.326;19.826;2023-06-19T02:02:08;19.10;99.90
11965;DHT22;6042;41.326;19.826;2023-06-19T02:04:37;19.00;99.90
11965;DHT22;6042;41.326;19.826;2023-06-19T02:07:06;19.00;99.90
11965;DHT22;6042;41.326;19.826;2023-06-19T02:09:38;19.00;99.90
11965;DHT22;6042;41.326;19.826;2023-06-19T02:12:08;18.90;99.90
11965;DHT22;6042;41.326;19.826;2023-06-19T02:14:37;19.00;99.90
11965;DHT22;6042;41.326;19.826;2023-06-19T02:17:06;19.00;99.90
11965;DHT22;6042;41.326;19.826;2023-06-19T02:19:35;19.00;99.90
11965;DHT22;6042;41.326;19.826;2023-06-19T02:22:04;19.00;99.90
11965;DHT22;6042;41.326;19.826;2023-06-19T02:24:32;19.00;99.90
11965;DHT22;6042;41.326;19.826;2023-06-19T02:27:04;19.10;99.90
11965;DHT22;6042;41.326;19.826;2023-06-19T02:29:32;18.90;99.90
11965;DHT22;6042;41.326;19.826;2023-06-19T02:32:02;18.90;99.90
11965;DHT22;6042;41.326;19.826;2023-06-19T02:34:30;18.80;99.90
11965;DHT22;6042;41.326;19.826;2023-06-19T02:36:59;18.80;99.90
11965;DHT22;6042;41.326;19.826;2023-06-19T02:39:29;18.80;99.90
11965;DHT22;6042;41.326;19.826;2023-06-19T02:41:58;18.80;99.90
11965;DHT22;6042;41.326;19.826;2023-06-19T02:44:29;18.70;99.90
11965;DHT22;6042;41.326;19.826;2023-06-19T02:46:58;18.60;99.90
11965;DHT22;6042;41.326;19.826;2023-06-19T02:49:26;18.70;99.90
11965;DHT22;6042;41.326;19.826;2023-06-19T02:51:57;18.70;99.90
11965;DHT22;6042;41.326;19.826;2023-06-19T02:54:25;18.80;99.90
11965;DHT22;6042;41.326;19.826;2023-06-19T02:56:54;18.80;99.90
11965;DHT22;6042;41.326;19.826;2023-06-19T02:59:22;18.80;99.90
11965;DHT22;6042;41.326;19.826;2023-06-19T03:01:52;18.80;99.90
11965;DHT22;6042;41.326;19.826;2023-06-19T03:04:21;18.80;99.90
11965;DHT22;6042;41.326;19.826;2023-06-19T03:06:55;18.80;99.90
11965;DHT22;6042;41.326;19.826;2023-06-19T03:09:23;18.80;99.90
11965;DHT22;6042;41.326;19.826;2023-06-19T03:11:53;18.80;99.90
11965;DHT22;6042;41.326;19.826;2023-06-19T03:14:21;18.80;99.90
11965;DHT22;6042;41.326;19.826;2023-06-19T03:16:52;18.80;99.90
11965;DHT22;6042;41.326;19.826;2023-06-19T03:19:20;18.90;99.90
11965;DHT22;6042;41.326;19.826;2023-06-19T03:21:50;18.90;99.90
11965;DHT22;6042;41.326;19.826;2023-06-19T03:24:19;18.90;99.90
11965;DHT22;6042;41.326;19.826;2023-06-19T03:26:51;18.80;99.90
11965;DHT22;6042;41.326;19.826;2023-06-19T03:29:20;18.80;99.90
11965;DHT22;6042;41.326;19.826;2023-06-19T03:31:56;18.90;99.90
11965;DHT22;6042;41.326;19.826;2023-06-19T03:34:30;18.90;99.90
11965;DHT22;6042;41.326;19.826;2023-06-19T03:37:01;18.90;99.90
11965;DHT22;6042;41.326;19.826;2023-06-19T03:39:33;18.90;99.90
11965;DHT22;6042;41.326;19.826;2023-06-19T03:42:08;18.80;99.90
11965;DHT22;6042;41.326;19.826;2023-06-19T03:44:36;18.70;99.90
11965;DHT22;6042;41.326;19.826;2023-06-19T03:47:08;18.70;99.90
11965;DHT22;6042;41.326;19.826;2023-06-19T03:49:36;18.70;99.90
11965;DHT22;6042;41.326;19.826;2023-06-19T03:52:05;18.80;99.90
11965;DHT22;6042;41.326;19.826;2023-06-19T03:54:35;18.80;99.90
11965;DHT22;6042;41.326;19.826;2023-06-19T03:57:04;18.90;99.90
11965;DHT22;6042;41.326;19.826;2023-06-19T03:59:34;18.90;99.90
11965;DHT22;6042;41.326;19.826;2023-06-19T04:02:03;18.90;99.90
11965;DHT22;6042;41.326;19.826;2023-06-19T04:04:33;19.00;99.90
11965;DHT22;6042;41.326;19.826;2023-06-19T04:07:02;19.00;99.90
11965;DHT22;6042;41.326;19.826;2023-06-19T04:09:31;19.10;99.90
11965;DHT22;6042;41.326;19.826;2023-06-19T04:12:00;19.10;99.90
11965;DHT22;6042;41.326;19.826;2023-06-19T04:14:29;19.20;99.90
11965;DHT22;6042;41.326;19.826;2023-06-19T04:16:58;19.30;99.90
11965;DHT22;6042;41.326;19.826;2023-06-19T04:19:27;19.30;99.90
11965;DHT22;6042;41.326;19.826;2023-06-19T04:21:58;19.30;99.90
11965;DHT22;6042;41.326;19.826;2023-06-19T04:24:27;19.40;99.90
11965;DHT22;6042;41.326;19.826;2023-06-19T04:26:56;19.50;99.90
11965;DHT22;6042;41.326;19.826;2023-06-19T04:29:24;19.60;99.90
11965;DHT22;6042;41.326;19.826;2023-06-19T04:31:53;19.60;99.90
11965;DHT22;6042;41.326;19.826;2023-06-19T04:34:22;19.60;99.90
11965;DHT22;6042;41.326;19.826;2023-06-19T04:36:50;19.60;99.90
11965;DHT22;6042;41.326;19.826;2023-06-19T04:39:20;19.60;99.90
11965;DHT22;6042;41.326;19.826;2023-06-19T04:41:49;19.60;99.90
11965;DHT22;6042;41.326;19.826;2023-06-19T04:44:17;19.50;99.90
11965;DHT22;6042;41.326;19.826;2023-06-19T04:46:47;19.50;99.90
11965;DHT22;6042;41.326;19.826;2023-06-19T04:49:15;19.40;99.90
11965;DHT22;6042;41.326;19.826;2023-06-19T04:51:45;19.50;99.90
11965;DHT22;6042;41.326;19.826;2023-06-19T04:54:15;19.60;99.90
11965;DHT22;6042;41.326;19.826;2023-06-19T04:56:45;19.60;99.90
11965;DHT22;6042;41.326;19.826;2023-06-19T04:59:14;19.60;99.90
11965;DHT22;6042;41.326;19.826;2023-06-19T05:01:45;19.70;99.90
11965;DHT22;6042;41.326;19.826;2023-06-19T05:04:14;19.80;99.90
11965;DHT22;6042;41.326;19.826;2023-06-19T05:06:43;19.80;99.90
11965;DHT22;6042;41.326;19.826;2023-06-19T05:09:12;19.90;99.90
11965;DHT22;6042;41.326;19.826;2023-06-19T05:11:40;20.00;99.90
11965;DHT22;6042;41.326;19.826;2023-06-19T05:14:10;20.10;99.90
11965;DHT22;6042;41.326;19.826;2023-06-19T05:16:41;20.20;99.90
11965;DHT22;6042;41.326;19.826;2023-06-19T05:19:10;20.20;99.90
11965;DHT22;6042;41.326;19.826;2023-06-19T05:21:39;20.30;99.90
11965;DHT22;6042;41.326;19.826;2023-06-19T05:24:07;20.50;99.90
11965;DHT22;6042;41.326;19.826;2023-06-19T05:26:36;20.50;99.90
11965;DHT22;6042;41.326;19.826;2023-06-19T05:29:05;20.70;99.90
11965;DHT22;6042;41.326;19.826;2023-06-19T05:31:38;20.80;99.90
11965;DHT22;6042;41.326;19.826;2023-06-19T05:34:06;20.90;99.90
11965;DHT22;6042;41.326;19.826;2023-06-19T05:36:37;20.90;99.90
11965;DHT22;6042;41.326;19.826;2023-06-19T05:39:07;21.00;99.90
11965;DHT22;6042;41.326;19.826;2023-06-19T05:41:36;21.10;99.90
11965;DHT22;6042;41.326;19.826;2023-06-19T05:44:05;21.20;99.90
11965;DHT22;6042;41.326;19.826;2023-06-19T05:46:34;21.20;99.90
11965;DHT22;6042;41.326;19.826;2023-06-19T05:49:04;21.30;99.90
11965;DHT22;6042;41.326;19.826;2023-06-19T05:51:32;21.40;99.90
11965;DHT22;6042;41.326;19.826;2023-06-19T05:54:01;21.50;99.90
11965;DHT22;6042;41.326;19.826;2023-06-19T05:56:31;21.60;99.90
11965;DHT22;6042;41.326;19.826;2023-06-19T05:59:00;21.60;99.90
11965;DHT22;6042;41.326;19.826;2023-06-19T06:01:29;21.70;99.90
11965;DHT22;6042;41.326;19.826;2023-06-19T06:03:58;21.80;99.90
11965;DHT22;6042;41.326;19.826;2023-06-19T06:06:30;21.80;99.90
11965;DHT22;6042;41.326;19.826;2023-06-19T06:08:59;21.70;99.90
11965;DHT22;6042;41.326;19.826;2023-06-19T06:11:27;21.80;99.90
11965;DHT22;6042;41.326;19.826;2023-06-19T06:13:56;21.90;99.90
11965;DHT22;6042;41.326;19.826;2023-06-19T06:16:25;22.10;99.90
11965;DHT22;6042;41.326;19.826;2023-06-19T06:18:54;22.20;99.90
11965;DHT22;6042;41.326;19.826;2023-06-19T06:21:22;22.40;99.90
11965;DHT22;6042;41.326;19.826;2023-06-19T06:23:53;22.40;99.90
11965;DHT22;6042;41.326;19.826;2023-06-19T06:26:22;22.50;99.90
11965;DHT22;6042;41.326;19.826;2023-06-19T06:28:51;22.70;99.90
11965;DHT22;6042;41.326;19.826;2023-06-19T06:31:20;22.70;99.90
11965;DHT22;6042;41.326;19.826;2023-06-19T06:33:49;22.80;99.90
11965;DHT22;6042;41.326;19.826;2023-06-19T06:36:17;22.90;99.90
11965;DHT22;6042;41.326;19.826;2023-06-19T06:39:03;23.10;99.90
11965;DHT22;6042;41.326;19.826;2023-06-19T06:41:33;23.00;99.90
11965;DHT22;6042;41.326;19.826;2023-06-19T06:44:04;22.90;99.90
11965;DHT22;6042;41.326;19.826;2023-06-19T06:46:33;23.20;99.90
11965;DHT22;6042;41.326;19.826;2023-06-19T06:49:02;23.30;99.90
11965;DHT22;6042;41.326;19.826;2023-06-19T06:51:30;23.30;99.90
11965;DHT22;6042;41.326;19.826;2023-06-19T06:53:59;23.30;99.90
11965;DHT22;6042;41.326;19.826;2023-06-19T06:56:30;23.30;99.90
11965;DHT22;6042;41.326;19.826;2023-06-19T06:58:59;23.40;99.90
11965;DHT22;6042;41.326;19.826;2023-06-19T07:01:27;23.40;99.90
11965;DHT22;6042;41.326;19.826;2023-06-19T07:03:56;23.30;99.90
11965;DHT22;6042;41.326;19.826;2023-06-19T07:06:25;23.40;99.90
11965;DHT22;6042;41.326;19.826;2023-06-19T07:08:53;23.50;99.90
11965;DHT22;6042;41.326;19.826;2023-06-19T07:11:22;23.70;99.50
11965;DHT22;6042;41.326;19.826;2023-06-19T07:13:52;23.80;99.70
11965;DHT22;6042;41.326;19.826;2023-06-19T07:16:21;23.90;99.10
11965;DHT22;6042;41.326;19.826;2023-06-19T07:18:50;24.00;98.80
11965;DHT22;6042;41.326;19.826;2023-06-19T07:21:19;24.00;98.90
11965;DHT22;6042;41.326;19.826;2023-06-19T07:23:47;24.20;97.10
11965;DHT22;6042;41.326;19.826;2023-06-19T07:26:17;24.40;97.00
11965;DHT22;6042;41.326;19.826;2023-06-19T07:28:45;24.60;96.80
11965;DHT22;6042;41.326;19.826;2023-06-19T07:31:15;24.80;95.40
11965;DHT22;6042;41.326;19.826;2023-06-19T07:33:44;24.80;95.70
11965;DHT22;6042;41.326;19.826;2023-06-19T07:36:13;25.00;95.20
11965;DHT22;6042;41.326;19.826;2023-06-19T07:38:43;25.00;95.40
11965;DHT22;6042;41.326;19.826;2023-06-19T07:41:12;25.10;95.60
11965;DHT22;6042;41.326;19.826;2023-06-19T07:43:40;25.10;95.50
11965;DHT22;6042;41.326;19.826;2023-06-19T07:46:09;25.20;96.20
11965;DHT22;6042;41.326;19.826;2023-06-19T07:48:40;25.30;95.80
11965;DHT22;6042;41.326;19.826;2023-06-19T07:51:10;25.40;96.20
11965;DHT22;6042;41.326;19.826;2023-06-19T07:53:39;25.40;96.40
11965;DHT22;6042;41.326;19.826;2023-06-19T07:56:08;25.40;96.20
11965;DHT22;6042;41.326;19.826;2023-06-19T07:58:36;25.40;96.40
11965;DHT22;6042;41.326;19.826;2023-06-19T08:01:05;25.50;96.10
11965;DHT22;6042;41.326;19.826;2023-06-19T08:03:33;25.50;95.50
11965;DHT22;6042;41.326;19.826;2023-06-19T08:06:04;25.30;95.80
11965;DHT22;6042;41.326;19.826;2023-06-19T08:08:32;25.30;95.90
11965;DHT22;6042;41.326;19.826;2023-06-19T08:11:01;25.30;95.40
11965;DHT22;6042;41.326;19.826;2023-06-19T08:13:30;25.40;95.30
11965;DHT22;6042;41.326;19.826;2023-06-19T08:15:58;25.40;95.50
11965;DHT22;6042;41.326;19.826;2023-06-19T08:18:29;25.30;95.80
11965;DHT22;6042;41.326;19.826;2023-06-19T08:20:59;25.40;95.70
11965;DHT22;6042;41.326;19.826;2023-06-19T08:23:29;25.50;95.30
11965;DHT22;6042;41.326;19.826;2023-06-19T08:25:58;25.60;95.10
11965;DHT22;6042;41.326;19.826;2023-06-19T08:28:26;25.70;95.30
11965;DHT22;6042;41.326;19.826;2023-06-19T08:30:55;25.70;95.30
11965;DHT22;6042;41.326;19.826;2023-06-19T08:33:24;25.90;95.60
11965;DHT22;6042;41.326;19.826;2023-06-19T08:35:53;25.90;94.60
11965;DHT22;6042;41.326;19.826;2023-06-19T08:38:21;25.80;94.60
11965;DHT22;6042;41.326;19.826;2023-06-19T08:40:51;25.80;95.10
11965;DHT22;6042;41.326;19.826;2023-06-19T08:43:20;25.70;95.40
11965;DHT22;6042;41.326;19.826;2023-06-19T08:45:55;25.80;95.40
11965;DHT22;6042;41.326;19.826;2023-06-19T08:48:28;25.90;94.60
11965;DHT22;6042;41.326;19.826;2023-06-19T08:50:56;25.90;93.70
11965;DHT22;6042;41.326;19.826;2023-06-19T08:53:25;26.00;93.80
11965;DHT22;6042;41.326;19.826;2023-06-19T08:55:55;26.00;94.00
11965;DHT22;6042;41.326;19.826;2023-06-19T08:58:25;26.10;93.20
11965;DHT22;6042;41.326;19.826;2023-06-19T09:00:54;26.20;92.20
11965;DHT22;6042;41.326;19.826;2023-06-19T09:03:23;26.10;93.10
11965;DHT22;6042;41.326;19.826;2023-06-19T09:05:52;26.00;91.70
11965;DHT22;6042;41.326;19.826;2023-06-19T09:08:22;26.10;92.00
11965;DHT22;6042;41.326;19.826;2023-06-19T09:10:57;26.40;92.00
11965;DHT22;6042;41.326;19.826;2023-06-19T09:13:25;26.40;91.60
11965;DHT22;6042;41.326;19.826;2023-06-19T09:16:00;26.40;91.50
11965;DHT22;6042;41.326;19.826;2023-06-19T09:18:30;26.40;92.00
11965;DHT22;6042;41.326;19.826;2023-06-19T09:20:59;26.40;92.90
11965;DHT22;6042;41.326;19.826;2023-06-19T09:23:27;26.40;92.90
11965;DHT22;6042;41.326;19.826;2023-06-19T09:26:00;26.30;92.90
11965;DHT22;6042;41.326;19.826;2023-06-19T09:28:33;26.20;92.40
11965;DHT22;6042;41.326;19.826;2023-06-19T09:31:02;26.30;92.70
11965;DHT22;6042;41.326;19.826;2023-06-19T09:33:34;26.30;91.60
11965;DHT22;6042;41.326;19.826;2023-06-19T09:36:04;26.40;91.70
11965;DHT22;6042;41.326;19.826;2023-06-19T09:38:35;26.60;91.30
11965;DHT22;6042;41.326;19.826;2023-06-19T09:41:09;26.70;90.40
11965;DHT22;6042;41.326;19.826;2023-06-19T09:43:40;26.70;90.10
11965;DHT22;6042;41.326;19.826;2023-06-19T09:46:11;26.80;90.30
11965;DHT22;6042;41.326;19.826;2023-06-19T09:48:42;26.90;90.60
11965;DHT22;6042;41.326;19.826;2023-06-19T09:51:17;27.10;91.50
11965;DHT22;6042;41.326;19.826;2023-06-19T09:53:48;27.10;90.30
11965;DHT22;6042;41.326;19.826;2023-06-19T09:56:19;27.20;90.50
11965;DHT22;6042;41.326;19.826;2023-06-19T09:58:51;27.30;90.20
11965;DHT22;6042;41.326;19.826;2023-06-19T10:01:20;27.40;90.10
11965;DHT22;6042;41.326;19.826;2023-06-19T10:03:49;27.30;90.00
11965;DHT22;6042;41.326;19.826;2023-06-19T10:06:17;27.40;90.40
11965;DHT22;6042;41.326;19.826;2023-06-19T10:08:47;27.50;90.70
11965;DHT22;6042;41.326;19.826;2023-06-19T10:11:15;27.40;91.10
11965;DHT22;6042;41.326;19.826;2023-06-19T10:13:45;27.40;90.60
11965;DHT22;6042;41.326;19.826;2023-06-19T10:16:20;27.40;89.80
11965;DHT22;6042;41.326;19.826;2023-06-19T10:18:50;27.40;90.30
11965;DHT22;6042;41.326;19.826;2023-06-19T10:21:19;27.50;90.40
11965;DHT22;6042;41.326;19.826;2023-06-19T10:23:55;27.50;91.00
11965;DHT22;6042;41.326;19.826;2023-06-19T10:26:31;27.30;87.30
11965;DHT22;6042;41.326;19.826;2023-06-19T10:29:13;27.20;87.80
11965;DHT22;6042;41.326;19.826;2023-06-19T10:31:43;27.20;88.30
11965;DHT22;6042;41.326;19.826;2023-06-19T10:34:12;27.30;86.10
11965;DHT22;6042;41.326;19.826;2023-06-19T10:36:40;27.30;88.20
11965;DHT22;6042;41.326;19.826;2023-06-19T10:39:09;27.40;89.90
11965;DHT22;6042;41.326;19.826;2023-06-19T10:41:40;27.60;86.40
11965;DHT22;6042;41.326;19.826;2023-06-19T10:44:10;27.80;85.30
11965;DHT22;6042;41.326;19.826;2023-06-19T10:46:40;27.90;84.20
11965;DHT22;6042;41.326;19.826;2023-06-19T10:49:10;28.00;82.10
11965;DHT22;6042;41.326;19.826;2023-06-19T10:51:41;28.10;83.20
11965;DHT22;6042;41.326;19.826;2023-06-19T10:54:10;28.20;85.10
11965;DHT22;6042;41.326;19.826;2023-06-19T10:56:39;28.30;84.10
11965;DHT22;6042;41.326;19.826;2023-06-19T10:59:10;28.30;86.40
11965;DHT22;6042;41.326;19.826;2023-06-19T11:01:42;28.20;86.00
11965;DHT22;6042;41.326;19.826;2023-06-19T11:04:12;28.10;87.90
11965;DHT22;6042;41.326;19.826;2023-06-19T11:06:42;28.30;81.90
11965;DHT22;6042;41.326;19.826;2023-06-19T11:09:12;28.20;81.60
11965;DHT22;6042;41.326;19.826;2023-06-19T11:11:42;28.10;83.50
11965;DHT22;6042;41.326;19.826;2023-06-19T11:14:14;28.20;84.00
11965;DHT22;6042;41.326;19.826;2023-06-19T11:16:44;28.20;86.10
11965;DHT22;6042;41.326;19.826;2023-06-19T11:19:16;28.50;85.20
11965;DHT22;6042;41.326;19.826;2023-06-19T11:21:46;28.80;82.60
11965;DHT22;6042;41.326;19.826;2023-06-19T11:24:16;29.00;81.10
11965;DHT22;6042;41.326;19.826;2023-06-19T11:26:46;28.90;81.10
11965;DHT22;6042;41.326;19.826;2023-06-19T11:29:21;28.70;81.00
11965;DHT22;6042;41.326;19.826;2023-06-19T11:31:50;28.70;83.40
11965;DHT22;6042;41.326;19.826;2023-06-19T11:34:31;28.50;82.90
11965;DHT22;6042;41.326;19.826;2023-06-19T11:37:01;28.90;81.90
11965;DHT22;6042;41.326;19.826;2023-06-19T11:39:30;29.00;81.90
11965;DHT22;6042;41.326;19.826;2023-06-19T11:41:59;29.20;81.30
11965;DHT22;6042;41.326;19.826;2023-06-19T11:44:29;28.80;81.60
11965;DHT22;6042;41.326;19.826;2023-06-19T11:46:58;28.90;79.50
11965;DHT22;6042;41.326;19.826;2023-06-19T11:49:28;29.20;78.20
11965;DHT22;6042;41.326;19.826;2023-06-19T11:52:02;29.20;77.60
11965;DHT22;6042;41.326;19.826;2023-06-19T11:54:31;29.20;80.20
11965;DHT22;6042;41.326;19.826;2023-06-19T11:56:59;29.10;80.10
11965;DHT22;6042;41.326;19.826;2023-06-19T11:59:30;28.80;80.70
11965;DHT22;6042;41.326;19.826;2023-06-19T12:01:58;29.00;82.40
11965;DHT22;6042;41.326;19.826;2023-06-19T12:04:27;29.10;83.60
11965;DHT22;6042;41.326;19.826;2023-06-19T12:06:56;29.30;83.50
11965;DHT22;6042;41.326;19.826;2023-06-19T12:09:24;29.40;84.50
11965;DHT22;6042;41.326;19.826;2023-06-19T12:11:55;29.60;84.00
11965;DHT22;6042;41.326;19.826;2023-06-19T12:14:24;29.90;85.00
11965;DHT22;6042;41.326;19.826;2023-06-19T12:16:54;29.80;86.20
11965;DHT22;6042;41.326;19.826;2023-06-19T12:19:23;29.90;87.20
11965;DHT22;6042;41.326;19.826;2023-06-19T12:21:51;30.10;86.20
11965;DHT22;6042;41.326;19.826;2023-06-19T12:24:20;30.10;85.10
11965;DHT22;6042;41.326;19.826;2023-06-19T12:26:48;29.90;87.20
11965;DHT22;6042;41.326;19.826;2023-06-19T12:29:17;29.80;87.90
11965;DHT22;6042;41.326;19.826;2023-06-19T12:31:48;29.50;88.20
11965;DHT22;6042;41.326;19.826;2023-06-19T12:34:17;29.80;87.20
11965;DHT22;6042;41.326;19.826;2023-06-19T12:36:56;30.00;87.50
11965;DHT22;6042;41.326;19.826;2023-06-19T12:39:25;30.10;87.90
11965;DHT22;6042;41.326;19.826;2023-06-19T12:41:54;30.40;86.30
11965;DHT22;6042;41.326;19.826;2023-06-19T12:44:22;30.70;84.50
11965;DHT22;6042;41.326;19.826;2023-06-19T12:46:51;31.00;82.30
11965;DHT22;6042;41.326;19.826;2023-06-19T12:49:22;31.20;82.70
11965;DHT22;6042;41.326;19.826;2023-06-19T12:51:50;32.00;79.90
11965;DHT22;6042;41.326;19.826;2023-06-19T12:54:19;31.80;80.00
11965;DHT22;6042;41.326;19.826;2023-06-19T12:56:48;31.60;79.80
11965;DHT22;6042;41.326;19.826;2023-06-19T12:59:18;31.30;80.60
11965;DHT22;6042;41.326;19.826;2023-06-19T13:01:46;31.20;80.10
11965;DHT22;6042;41.326;19.826;2023-06-19T13:04:15;31.40;79.60
11965;DHT22;6042;41.326;19.826;2023-06-19T13:06:45;31.90;78.20
11965;DHT22;6042;41.326;19.826;2023-06-19T13:09:13;32.80;75.90
11965;DHT22;6042;41.326;19.826;2023-06-19T13:11:42;33.90;72.80
11965;DHT22;6042;41.326;19.826;2023-06-19T13:14:11;34.10;70.90
11965;DHT22;6042;41.326;19.826;2023-06-19T13:16:39;34.30;69.60
11965;DHT22;6042;41.326;19.826;2023-06-19T13:19:13;33.60;70.70
11965;DHT22;6042;41.326;19.826;2023-06-19T13:21:41;33.80;69.60
11965;DHT22;6042;41.326;19.826;2023-06-19T13:24:12;33.10;70.10
11965;DHT22;6042;41.326;19.826;2023-06-19T13:26:41;33.40;69.80
11965;DHT22;6042;41.326;19.826;2023-06-19T13:29:10;33.40;68.80
11965;DHT22;6042;41.326;19.826;2023-06-19T13:31:39;33.60;68.20
11965;DHT22;6042;41.326;19.826;2023-06-19T13:34:07;33.90;67.50
11965;DHT22;6042;41.326;19.826;2023-06-19T13:36:36;34.10;67.40
11965;DHT22;6042;41.326;19.826;2023-06-19T13:39:04;34.70;66.60
11965;DHT22;6042;41.326;19.826;2023-06-19T13:41:34;35.10;65.60
11965;DHT22;6042;41.326;19.826;2023-06-19T13:44:03;35.20;64.80
11965;DHT22;6042;41.326;19.826;2023-06-19T13:46:32;34.90;65.60
11965;DHT22;6042;41.326;19.826;2023-06-19T13:49:00;34.90;65.90
11965;DHT22;6042;41.326;19.826;2023-06-19T13:51:29;35.20;65.10
11965;DHT22;6042;41.326;19.826;2023-06-19T13:53:57;35.70;67.30
11965;DHT22;6042;41.326;19.826;2023-06-19T13:56:26;35.40;69.40
11965;DHT22;6042;41.326;19.826;2023-06-19T13:58:57;35.10;71.00
11965;DHT22;6042;41.326;19.826;2023-06-19T14:01:25;35.20;71.10
11965;DHT22;6042;41.326;19.826;2023-06-19T14:03:59;35.80;69.70
11965;DHT22;6042;41.326;19.826;2023-06-19T14:06:27;35.20;68.80
11965;DHT22;6042;41.326;19.826;2023-06-19T14:08:57;34.90;69.50
11965;DHT22;6042;41.326;19.826;2023-06-19T14:11:25;34.90;68.60
11965;DHT22;6042;41.326;19.826;2023-06-19T14:13:57;35.50;68.30
11965;DHT22;6042;41.326;19.826;2023-06-19T14:16:26;35.60;65.40
11965;DHT22;6042;41.326;19.826;2023-06-19T14:18:54;35.20;67.20
11965;DHT22;6042;41.326;19.826;2023-06-19T14:21:22;35.60;64.90
11965;DHT22;6042;41.326;19.826;2023-06-19T14:23:51;36.50;62.50
11965;DHT22;6042;41.326;19.826;2023-06-19T14:26:20;37.10;61.00
11965;DHT22;6042;41.326;19.826;2023-06-19T14:28:48;37.40;59.60
11965;DHT22;6042;41.326;19.826;2023-06-19T14:31:23;37.40;56.60
11965;DHT22;6042;41.326;19.826;2023-06-19T14:33:52;35.80;57.40
11965;DHT22;6042;41.326;19.826;2023-06-19T14:36:20;35.70;58.40
11965;DHT22;6042;41.326;19.826;2023-06-19T14:38:49;35.50;57.20
11965;DHT22;6042;41.326;19.826;2023-06-19T14:41:17;35.30;56.90
11965;DHT22;6042;41.326;19.826;2023-06-19T14:43:45;34.60;57.00
11965;DHT22;6042;41.326;19.826;2023-06-19T14:46:14;35.10;56.60
11965;DHT22;6042;41.326;19.826;2023-06-19T14:49:05;34.80;56.90
11965;DHT22;6042;41.326;19.826;2023-06-19T14:51:33;34.70;55.90
11965;DHT22;6042;41.326;19.826;2023-06-19T14:54:02;35.00;55.30
11965;DHT22;6042;41.326;19.826;2023-06-19T14:56:30;35.10;55.10
11965;DHT22;6042;41.326;19.826;2023-06-19T14:58:59;35.80;54.10
11965;DHT22;6042;41.326;19.826;2023-06-19T15:01:27;36.10;53.40
11965;DHT22;6042;41.326;19.826;2023-06-19T15:03:56;35.90;53.50
11965;DHT22;6042;41.326;19.826;2023-06-19T15:06:26;35.40;54.70
11965;DHT22;6042;41.326;19.826;2023-06-19T15:08:54;35.30;55.00
11965;DHT22;6042;41.326;19.826;2023-06-19T15:11:24;35.10;55.80
11965;DHT22;6042;41.326;19.826;2023-06-19T15:13:53;34.50;55.30
11965;DHT22;6042;41.326;19.826;2023-06-19T15:16:21;33.50;57.10
11965;DHT22;6042;41.326;19.826;2023-06-19T15:18:53;34.20;57.20
11965;DHT22;6042;41.326;19.826;2023-06-19T15:21:21;35.10;54.60
11965;DHT22;6042;41.326;19.826;2023-06-19T15:23:54;35.60;55.50
11965;DHT22;6042;41.326;19.826;2023-06-19T15:26:23;34.90;55.30
11965;DHT22;6042;41.326;19.826;2023-06-19T15:28:52;35.40;55.50
11965;DHT22;6042;41.326;19.826;2023-06-19T15:31:21;34.80;55.70
11965;DHT22;6042;41.326;19.826;2023-06-19T15:33:50;33.90;56.50
11965;DHT22;6042;41.326;19.826;2023-06-19T15:36:19;34.60;55.90
11965;DHT22;6042;41.326;19.826;2023-06-19T15:38:47;34.90;55.20
11965;DHT22;6042;41.326;19.826;2023-06-19T15:41:17;36.00;53.90
11965;DHT22;6042;41.326;19.826;2023-06-19T15:43:46;36.00;53.40
11965;DHT22;6042;41.326;19.826;2023-06-19T15:46:15;35.10;53.80